Time;durP1;ratioP1;P1;durP2;ratioP2;P2;SDS_P1;SDS_P2;PMS_P1;PMS_P2;Temp;Humidity;BMP_temperature;BMP_pressure;BME280_temperature;BME280_humidity;BME280_pressure;Samples;Min_cycle;Max_cycle;Signal;HPM_P1;HPM_P2
2023/04/17 00:01:38;;;;;;;58.95;35.30;;;8.40;99.90;;;;;;5017611;28;20041;-63
2023/04/17 00:04:04;;;;;;;71.32;37.33;;;8.50;99.90;;;;;;5016017;28;20041;-62
2023/04/17 00:06:32;;;;;;;59.63;34.78;;;8.30;99.90;;;;;;5016582;28;20322;-64
2023/04/17 00:08:58;;;;;;;67.72;36.90;;;8.60;99.90;;;;;;5020509;28;20672;-62
2023/04/17 00:11:25;;;;;;;70.80;40.70;;;8.30;99.90;;;;;;5030278;28;20149;-63
2023/04/17 00:13:51;;;;;;;67.47;41.80;;;8.30;99.90;;;;;;5012704;28;20213;-63
2023/04/17 00:16:16;;;;;;;71.38;40.33;;;8.20;99.90;;;;;;5021910;28;20052;-62
2023/04/17 00:18:42;;;;;;;61.10;33.67;;;8.30;99.90;;;;;;5019760;28;20052;-62
2023/04/17 00:21:08;;;;;;;61.90;34.20;;;8.30;99.90;;;;;;5020102;28;20037;-62
2023/04/17 00:23:34;;;;;;;61.30;35.03;;;8.10;99.90;;;;;;5020303;28;20076;-62
2023/04/17 00:26:00;;;;;;;64.43;33.85;;;8.20;99.90;;;;;;5036085;28;20127;-65
2023/04/17 00:28:25;;;;;;;61.22;34.15;;;8.10;99.90;;;;;;5019833;28;20052;-62
2023/04/17 00:30:51;;;;;;;66.22;33.50;;;8.30;99.90;;;;;;5021911;28;20809;-63
2023/04/17 00:33:17;;;;;;;66.13;35.22;;;8.20;99.90;;;;;;5019235;28;20042;-62
2023/04/17 00:35:43;;;;;;;64.75;33.42;;;8.00;99.90;;;;;;5018858;28;20037;-62
2023/04/17 00:38:08;;;;;;;65.18;33.97;;;8.20;99.90;;;;;;5020035;28;20422;-63
2023/04/17 00:40:35;;;;;;;68.00;36.55;;;8.10;99.90;;;;;;5019084;28;20658;-63
2023/04/17 00:43:02;;;;;;;71.03;35.70;;;8.30;99.90;;;;;;5020038;28;20400;-63
2023/04/17 00:45:29;;;;;;;62.42;34.63;;;8.40;99.90;;;;;;5020325;28;20277;-64
2023/04/17 00:47:57;;;;;;;58.25;34.15;;;8.40;99.90;;;;;;5017193;28;20128;-62
2023/04/17 00:50:23;;;;;;;63.28;36.42;;;8.20;99.90;;;;;;5017928;28;20041;-62
2023/04/17 00:52:50;;;;;;;70.70;37.47;;;8.30;99.90;;;;;;5010140;28;20179;-62
2023/04/17 00:55:16;;;;;;;58.30;35.90;;;8.30;99.90;;;;;;5004521;28;20037;-64
2023/04/17 00:57:43;;;;;;;63.00;36.03;;;8.50;99.90;;;;;;5011704;28;20051;-63
2023/04/17 01:00:10;;;;;;;63.60;35.92;;;8.30;99.90;;;;;;5020188;28;20499;-64
2023/04/17 01:02:36;;;;;;;61.63;36.17;;;8.30;99.90;;;;;;5015728;28;20548;-64
2023/04/17 01:05:02;;;;;;;59.63;35.75;;;8.40;99.90;;;;;;5028570;28;20546;-63
2023/04/17 01:07:29;;;;;;;64.43;34.42;;;8.30;99.90;;;;;;5036607;28;20103;-63
2023/04/17 01:09:55;;;;;;;55.60;34.20;;;8.50;99.90;;;;;;5018458;28;20052;-64
2023/04/17 01:12:23;;;;;;;60.85;35.85;;;8.40;99.90;;;;;;5018885;28;20261;-63
2023/04/17 01:14:56;;;;;;;69.40;37.08;;;8.30;99.90;;;;;;5022640;28;20114;-63
2023/04/17 01:17:24;;;;;;;58.78;34.78;;;8.30;99.90;;;;;;5021325;28;20480;-62
2023/04/17 01:19:51;;;;;;;67.57;34.20;;;8.50;99.90;;;;;;5018273;28;20041;-63
2023/04/17 01:22:20;;;;;;;71.30;37.40;;;8.20;99.90;;;;;;5018672;28;20049;-61
2023/04/17 01:24:47;;;;;;;72.22;38.58;;;8.20;99.90;;;;;;5018077;28;20056;-62
2023/04/17 01:27:14;;;;;;;84.97;41.03;;;8.40;99.90;;;;;;5018379;28;20065;-61
2023/04/17 01:29:41;;;;;;;74.68;37.15;;;8.40;99.90;;;;;;5012207;28;20172;-64
2023/04/17 01:32:06;;;;;;;75.68;35.63;;;8.40;99.90;;;;;;5020028;28;20324;-62
2023/04/17 01:34:32;;;;;;;71.95;36.22;;;8.40;99.90;;;;;;5026059;28;20046;-63
2023/04/17 01:36:58;;;;;;;74.50;35.97;;;8.40;99.90;;;;;;5024097;28;20041;-61
2023/04/17 01:39:24;;;;;;;68.30;34.30;;;8.10;99.90;;;;;;5028939;28;20333;-62
2023/04/17 01:41:50;;;;;;;70.25;34.28;;;8.40;99.90;;;;;;5020321;28;20042;-63
2023/04/17 01:44:17;;;;;;;69.85;34.45;;;8.30;99.90;;;;;;5019394;28;20409;-63
2023/04/17 01:46:42;;;;;;;68.93;33.33;;;8.40;99.90;;;;;;5020644;28;20065;-62
2023/04/17 01:49:08;;;;;;;70.30;34.30;;;8.30;99.90;;;;;;5019124;28;21019;-62
2023/04/17 01:51:34;;;;;;;73.50;33.47;;;8.40;99.90;;;;;;5020254;28;20044;-64
2023/04/17 01:53:59;;;;;;;76.53;32.97;;;8.40;99.90;;;;;;5020944;28;20033;-60
2023/04/17 01:56:25;;;;;;;64.07;30.88;;;8.40;99.90;;;;;;5012542;28;20475;-63
2023/04/17 01:58:51;;;;;;;67.32;32.55;;;8.30;99.90;;;;;;5011768;28;20495;-63
2023/04/17 02:01:17;;;;;;;68.63;31.45;;;8.40;99.90;;;;;;5021717;28;20042;-63
2023/04/17 02:03:43;;;;;;;59.67;29.92;;;8.20;99.90;;;;;;5017582;28;20111;-63
2023/04/17 02:06:08;;;;;;;59.22;28.13;;;8.30;99.90;;;;;;5018146;28;20037;-64
2023/04/17 02:08:34;;;;;;;63.92;30.90;;;8.40;99.90;;;;;;5018494;28;20032;-63
2023/04/17 02:11:00;;;;;;;65.32;32.00;;;8.10;99.90;;;;;;5028152;28;20521;-62
2023/04/17 02:13:25;;;;;;;80.60;39.50;;;8.20;99.90;;;;;;4983198;28;20399;-63
2023/04/17 02:15:51;;;;;;;83.90;41.65;;;8.40;99.90;;;;;;5021731;28;20370;-63
2023/04/17 02:18:17;;;;;;;82.72;40.95;;;8.40;99.90;;;;;;5002657;28;20065;-63
2023/04/17 02:20:43;;;;;;;79.55;38.15;;;8.30;99.90;;;;;;5019595;28;20048;-63
2023/04/17 02:23:09;;;;;;;75.43;38.80;;;8.20;99.90;;;;;;5032110;28;20041;-63
2023/04/17 02:25:35;;;;;;;80.35;40.17;;;8.30;99.90;;;;;;5005498;28;20041;-62
2023/04/17 02:28:00;;;;;;;92.88;42.80;;;8.20;99.90;;;;;;5017671;28;20080;-63
2023/04/17 02:30:27;;;;;;;106.55;46.92;;;8.10;99.90;;;;;;5010685;28;20295;-64
2023/04/17 02:32:53;;;;;;;101.53;44.33;;;8.30;99.90;;;;;;5018438;28;20319;-63
2023/04/17 02:35:20;;;;;;;99.05;46.17;;;8.10;99.90;;;;;;5010507;28;20049;-63
2023/04/17 02:37:46;;;;;;;104.57;46.92;;;8.10;99.90;;;;;;5020352;28;20045;-62
2023/04/17 02:40:13;;;;;;;83.97;42.75;;;8.00;99.90;;;;;;5018696;28;20038;-63
2023/04/17 02:42:38;;;;;;;68.35;38.63;;;8.10;99.90;;;;;;5015132;28;20075;-62
2023/04/17 02:45:05;;;;;;;58.83;36.63;;;8.30;99.90;;;;;;5014329;28;20159;-64
2023/04/17 02:47:30;;;;;;;61.42;37.47;;;8.20;99.90;;;;;;5026686;28;20148;-63
2023/04/17 02:49:58;;;;;;;64.07;37.85;;;8.10;99.90;;;;;;5011265;28;20052;-62
2023/04/17 02:52:28;;;;;;;64.30;39.50;;;8.10;99.90;;;;;;5016878;28;20041;-63
2023/04/17 02:54:55;;;;;;;64.70;39.97;;;8.10;99.90;;;;;;5021618;28;20603;-62
2023/04/17 02:57:22;;;;;;;63.83;39.50;;;8.10;99.90;;;;;;5017645;28;20045;-63
2023/04/17 02:59:48;;;;;;;57.70;38.28;;;8.30;99.90;;;;;;5017377;28;20041;-63
2023/04/17 03:02:13;;;;;;;70.53;42.10;;;8.10;99.90;;;;;;5009413;28;20487;-62
2023/04/17 03:04:41;;;;;;;74.47;41.92;;;8.30;99.90;;;;;;5016007;28;20112;-63
2023/04/17 03:07:09;;;;;;;74.82;42.72;;;8.20;99.90;;;;;;5034646;28;20174;-63
2023/04/17 03:09:35;;;;;;;78.63;45.53;;;8.20;99.90;;;;;;5012877;28;20048;-62
2023/04/17 03:12:01;;;;;;;74.43;43.45;;;8.00;99.90;;;;;;5014218;28;20406;-62
2023/04/17 03:14:26;;;;;;;80.20;46.15;;;7.90;99.90;;;;;;5018577;28;20236;-62
2023/04/17 03:16:52;;;;;;;74.43;43.72;;;7.90;99.90;;;;;;5017475;28;20818;-63
2023/04/17 03:19:17;;;;;;;73.88;44.50;;;8.00;99.90;;;;;;5016668;28;20048;-62
2023/04/17 03:21:43;;;;;;;70.00;42.42;;;8.10;99.90;;;;;;5018662;28;20045;-63
2023/04/17 03:24:10;;;;;;;63.55;41.90;;;8.00;99.90;;;;;;5017425;28;20617;-62
2023/04/17 03:26:36;;;;;;;72.88;43.95;;;8.00;99.90;;;;;;5019140;28;20045;-62
2023/04/17 03:29:02;;;;;;;73.88;44.58;;;7.90;99.90;;;;;;5014995;28;20056;-61
2023/04/17 03:31:27;;;;;;;79.53;47.80;;;8.00;99.90;;;;;;5026155;28;20084;-63
2023/04/17 03:33:53;;;;;;;71.85;45.85;;;8.10;99.90;;;;;;5015753;28;20037;-64
2023/04/17 03:36:19;;;;;;;80.30;48.85;;;8.00;99.90;;;;;;5008766;28;20041;-62
2023/04/17 03:38:44;;;;;;;61.80;39.38;;;7.90;99.90;;;;;;5018108;28;20348;-63
2023/04/17 03:41:10;;;;;;;61.03;40.80;;;7.90;99.90;;;;;;5000680;28;20190;-63
2023/04/17 03:43:36;;;;;;;59.70;38.60;;;8.10;99.90;;;;;;5016670;28;20371;-63
2023/04/17 03:46:01;;;;;;;57.80;38.35;;;8.10;99.90;;;;;;5030986;28;20099;-62
2023/04/17 03:48:27;;;;;;;51.88;35.63;;;8.00;99.90;;;;;;5008828;28;20420;-61
2023/04/17 03:50:53;;;;;;;49.08;33.15;;;8.10;99.90;;;;;;5017255;28;20125;-63
2023/04/17 03:53:19;;;;;;;47.47;33.13;;;7.80;99.90;;;;;;5016425;28;20041;-62
2023/04/17 03:55:44;;;;;;;52.13;33.85;;;7.80;99.90;;;;;;5002476;28;20037;-63
2023/04/17 03:58:10;;;;;;;48.47;34.50;;;7.70;99.90;;;;;;5026514;28;20168;-62
2023/04/17 04:00:36;;;;;;;47.72;32.45;;;7.60;99.90;;;;;;5021836;28;20041;-63
2023/04/17 04:03:03;;;;;;;43.83;29.70;;;7.60;99.90;;;;;;5025282;28;20044;-64
2023/04/17 04:05:29;;;;;;;47.60;33.47;;;7.90;99.90;;;;;;5025271;28;20692;-62
2023/04/17 04:07:55;;;;;;;48.85;33.63;;;7.90;99.90;;;;;;5016788;28;20340;-62
2023/04/17 04:10:20;;;;;;;51.53;31.85;;;7.70;99.90;;;;;;5018795;28;20067;-62
2023/04/17 04:12:46;;;;;;;59.40;34.45;;;7.60;99.90;;;;;;5016306;28;20120;-64
2023/04/17 04:15:12;;;;;;;50.60;32.30;;;7.90;99.90;;;;;;5015824;28;20041;-64
2023/04/17 04:17:38;;;;;;;45.58;30.90;;;7.80;99.90;;;;;;5026698;28;20067;-65
2023/04/17 04:20:07;;;;;;;40.92;28.25;;;7.70;99.90;;;;;;5017076;28;20358;-63
2023/04/17 04:22:33;;;;;;;44.17;27.77;;;7.80;99.90;;;;;;5003472;28;20041;-63
2023/04/17 04:24:59;;;;;;;41.40;27.20;;;7.80;99.90;;;;;;5019397;28;20577;-63
2023/04/17 04:27:26;;;;;;;35.15;25.40;;;7.90;99.90;;;;;;5014870;28;20044;-63
2023/04/17 04:29:58;;;;;;;36.80;26.25;;;7.70;99.90;;;;;;5025100;28;20539;-64
2023/04/17 04:32:24;;;;;;;38.17;26.23;;;8.00;99.90;;;;;;5018288;28;20047;-63
2023/04/17 04:34:50;;;;;;;32.38;23.52;;;7.90;99.90;;;;;;5018240;28;20785;-63
2023/04/17 04:37:20;;;;;;;34.28;23.70;;;7.70;99.90;;;;;;5016399;28;20044;-64
2023/04/17 04:40:00;;;;;;;32.58;23.63;;;7.80;99.90;;;;;;5015313;28;20204;-63
2023/04/17 04:42:30;;;;;;;31.05;21.55;;;7.80;99.90;;;;;;5017122;28;20110;-64
2023/04/17 04:44:56;;;;;;;28.88;20.83;;;8.10;99.90;;;;;;5017502;28;20482;-64
2023/04/17 04:47:21;;;;;;;30.73;22.85;;;7.80;99.90;;;;;;5009791;28;20521;-64
2023/04/17 04:49:47;;;;;;;30.77;24.05;;;8.10;99.90;;;;;;5018740;28;20048;-63
2023/04/17 04:52:13;;;;;;;30.13;20.02;;;7.80;99.90;;;;;;5000153;28;20060;-62
2023/04/17 04:54:39;;;;;;;29.85;21.65;;;8.10;99.90;;;;;;5021884;28;20056;-62
2023/04/17 04:57:04;;;;;;;34.00;21.02;;;8.10;99.90;;;;;;5014458;28;20037;-62
2023/04/17 04:59:30;;;;;;;34.80;23.20;;;7.90;99.90;;;;;;5018018;28;20076;-63
2023/04/17 05:01:56;;;;;;;38.58;24.90;;;8.00;99.90;;;;;;5013731;28;20059;-63
2023/04/17 05:04:21;;;;;;;30.63;24.30;;;7.90;99.90;;;;;;5019950;28;20040;-64
2023/04/17 05:06:48;;;;;;;36.03;24.50;;;8.20;99.90;;;;;;5015899;28;20605;-63
2023/04/17 05:09:14;;;;;;;31.95;22.85;;;8.20;99.90;;;;;;5020907;28;20044;-63
2023/04/17 05:11:39;;;;;;;36.95;23.60;;;8.10;99.90;;;;;;5022087;28;20041;-63
2023/04/17 05:14:05;;;;;;;30.65;24.15;;;8.20;99.90;;;;;;5019431;28;20128;-64
2023/04/17 05:16:31;;;;;;;29.95;22.40;;;8.50;99.90;;;;;;5020721;28;20110;-64
2023/04/17 05:18:57;;;;;;;32.88;23.13;;;8.50;99.90;;;;;;5027047;28;20129;-63
2023/04/17 05:21:23;;;;;;;33.08;22.98;;;8.30;99.90;;;;;;5020456;28;20041;-63
2023/04/17 05:23:49;;;;;;;33.60;22.55;;;8.60;99.90;;;;;;5029719;28;20080;-63
2023/04/17 05:26:15;;;;;;;29.35;21.13;;;8.60;99.90;;;;;;5029280;28;20565;-63
2023/04/17 05:28:40;;;;;;;26.23;19.65;;;8.40;99.90;;;;;;5002156;28;20073;-64
2023/04/17 05:31:06;;;;;;;29.00;21.17;;;8.60;99.90;;;;;;5029835;28;20049;-62
2023/04/17 05:33:32;;;;;;;30.77;20.08;;;8.50;99.90;;;;;;5021590;28;20076;-62
2023/04/17 05:35:57;;;;;;;25.13;18.52;;;8.70;99.90;;;;;;5022740;28;20037;-63
2023/04/17 05:38:23;;;;;;;30.98;19.23;;;8.50;99.90;;;;;;5019982;28;20411;-63
2023/04/17 05:40:49;;;;;;;26.40;18.60;;;8.60;99.90;;;;;;5022830;28;20095;-63
2023/04/17 05:43:14;;;;;;;27.95;18.10;;;8.80;99.90;;;;;;5018493;28;20041;-64
2023/04/17 05:45:40;;;;;;;24.63;16.10;;;8.80;99.90;;;;;;5005622;28;20048;-62
2023/04/17 05:48:06;;;;;;;23.80;17.33;;;8.90;99.90;;;;;;5016829;28;20045;-63
2023/04/17 05:50:32;;;;;;;23.13;17.83;;;8.70;99.90;;;;;;5019033;28;20034;-63
2023/04/17 05:52:58;;;;;;;26.80;19.75;;;8.80;99.90;;;;;;5017886;28;21298;-62
2023/04/17 05:55:23;;;;;;;24.85;19.42;;;8.80;99.90;;;;;;5019862;28;20124;-63
2023/04/17 05:57:49;;;;;;;32.90;25.05;;;8.80;99.90;;;;;;5019566;28;20041;-64
2023/04/17 06:00:15;;;;;;;28.33;24.20;;;8.90;99.90;;;;;;5017877;28;20112;-64
2023/04/17 06:02:43;;;;;;;30.70;25.23;;;9.00;99.90;;;;;;4999376;28;20084;-62
2023/04/17 06:05:09;;;;;;;26.20;21.02;;;9.10;99.90;;;;;;5017516;28;20053;-64
2023/04/17 06:07:39;;;;;;;29.80;21.52;;;8.90;99.90;;;;;;5019128;28;20065;-63
2023/04/17 06:10:08;;;;;;;27.85;21.35;;;9.20;99.90;;;;;;5017787;28;20088;-64
2023/04/17 06:12:34;;;;;;;26.83;19.42;;;9.20;99.90;;;;;;5016357;28;20087;-63
2023/04/17 06:15:00;;;;;;;20.33;16.00;;;9.30;99.90;;;;;;5029487;28;20374;-63
2023/04/17 06:17:26;;;;;;;22.63;16.00;;;9.30;99.90;;;;;;5016367;28;20037;-63
2023/04/17 06:19:51;;;;;;;22.80;14.73;;;9.30;99.90;;;;;;5018516;28;20052;-64
2023/04/17 06:22:17;;;;;;;23.92;17.00;;;9.40;99.90;;;;;;5018790;28;20477;-63
2023/04/17 06:24:43;;;;;;;23.15;16.02;;;9.30;99.90;;;;;;5011831;28;20045;-64
2023/04/17 06:27:08;;;;;;;18.60;15.70;;;9.40;99.90;;;;;;5021765;28;20041;-61
2023/04/17 06:29:34;;;;;;;18.40;13.75;;;9.40;99.90;;;;;;4990615;28;20354;-63
2023/04/17 06:31:59;;;;;;;19.80;14.80;;;9.50;99.90;;;;;;5007061;28;20057;-63
2023/04/17 06:34:25;;;;;;;21.92;14.85;;;9.60;99.90;;;;;;5019687;28;20166;-63
2023/04/17 06:36:52;;;;;;;19.05;14.13;;;9.70;99.90;;;;;;5018092;28;20055;-63
2023/04/17 06:39:17;;;;;;;16.73;12.57;;;9.60;99.90;;;;;;5019518;28;20829;-63
2023/04/17 06:41:43;;;;;;;17.27;12.90;;;9.80;99.90;;;;;;5015280;28;20041;-63
2023/04/17 06:44:09;;;;;;;17.23;12.30;;;9.70;99.90;;;;;;5014046;28;20048;-63
2023/04/17 06:46:35;;;;;;;17.13;12.10;;;9.70;99.90;;;;;;5020157;28;20060;-63
2023/04/17 06:49:01;;;;;;;19.55;12.55;;;9.70;99.90;;;;;;5008511;28;20045;-63
2023/04/17 06:51:28;;;;;;;16.48;12.25;;;9.90;99.90;;;;;;5017273;28;20056;-62
2023/04/17 06:53:54;;;;;;;18.15;11.43;;;9.90;99.90;;;;;;5018755;28;20463;-63
2023/04/17 06:56:19;;;;;;;15.65;11.85;;;9.90;99.90;;;;;;5017006;28;20077;-62
2023/04/17 06:58:46;;;;;;;16.02;10.32;;;10.20;99.90;;;;;;5019867;28;20140;-63
2023/04/17 07:01:12;;;;;;;19.00;10.63;;;10.20;99.90;;;;;;5028308;28;20048;-63
2023/04/17 07:03:39;;;;;;;15.32;9.63;;;10.30;99.90;;;;;;5036974;28;20076;-64
2023/04/17 07:06:05;;;;;;;12.48;9.73;;;10.40;99.90;;;;;;5015971;28;20115;-63
2023/04/17 07:08:31;;;;;;;15.07;9.27;;;10.50;99.90;;;;;;5015808;28;20140;-64
2023/04/17 07:10:57;;;;;;;15.45;10.20;;;10.50;99.90;;;;;;5014866;28;20040;-63
2023/04/17 07:13:23;;;;;;;16.08;11.95;;;10.80;99.90;;;;;;5021998;28;20442;-63
2023/04/17 07:15:56;;;;;;;15.95;11.98;;;10.90;99.90;;;;;;5001767;28;20135;-62
2023/04/17 07:18:22;;;;;;;14.30;10.57;;;11.10;99.90;;;;;;5014796;28;20237;-63
2023/04/17 07:20:48;;;;;;;13.05;10.75;;;11.10;99.90;;;;;;5014919;28;20040;-64
2023/04/17 07:23:14;;;;;;;12.00;9.63;;;11.20;99.90;;;;;;5017792;28;20399;-63
2023/04/17 07:25:40;;;;;;;13.05;9.65;;;11.40;99.90;;;;;;5021421;28;20063;-62
2023/04/17 07:28:06;;;;;;;17.15;8.80;;;11.50;60.10;;;;;;5017555;28;20081;-64
2023/04/17 07:30:31;;;;;;;12.98;9.60;;;11.40;1.00;;;;;;5014185;28;20057;-63
2023/04/17 07:32:57;;;;;;;14.90;10.30;;;11.50;1.00;;;;;;5017140;28;20109;-63
2023/04/17 07:35:23;;;;;;;12.45;8.60;;;11.60;99.90;;;;;;5014381;28;20041;-62
2023/04/17 07:37:49;;;;;;;13.60;11.15;;;11.60;99.90;;;;;;5003243;28;20260;-64
2023/04/17 07:40:15;;;;;;;12.18;9.48;;;11.70;1.00;;;;;;5026414;28;21160;-64
2023/04/17 07:42:41;;;;;;;11.85;8.73;;;11.80;99.90;;;;;;5017882;28;20393;-62
2023/04/17 07:45:08;;;;;;;12.30;8.75;;;11.70;99.90;;;;;;5018075;28;20040;-63
2023/04/17 07:47:34;;;;;;;11.40;8.73;;;11.70;99.90;;;;;;5017410;28;20045;-62
2023/04/17 07:50:00;;;;;;;11.75;8.43;;;11.80;99.90;;;;;;5031936;28;20045;-63
2023/04/17 07:52:26;;;;;;;14.48;10.35;;;11.90;99.90;;;;;;5034252;28;20045;-64
2023/04/17 07:54:51;;;;;;;14.23;10.07;;;11.80;99.90;;;;;;5023002;28;20037;-64
2023/04/17 07:57:17;;;;;;;11.95;8.00;;;11.90;99.90;;;;;;5016677;28;20111;-62
2023/04/17 07:59:44;;;;;;;11.45;8.57;;;12.10;99.90;;;;;;5018385;28;20120;-63
2023/04/17 08:02:10;;;;;;;12.35;8.30;;;12.20;99.90;;;;;;5025461;28;20373;-63
2023/04/17 08:04:37;;;;;;;11.75;8.30;;;12.20;99.90;;;;;;5017090;28;20107;-63
2023/04/17 08:07:05;;;;;;;11.98;7.60;;;12.20;99.90;;;;;;5002936;28;20225;-63
2023/04/17 08:09:31;;;;;;;10.90;8.57;;;12.40;99.90;;;;;;5005404;28;20046;-62
2023/04/17 08:11:57;;;;;;;11.80;7.88;;;12.30;73.60;;;;;;5019916;28;20040;-63
2023/04/17 08:14:22;;;;;;;13.52;8.65;;;12.40;87.00;;;;;;5008672;28;20603;-63
2023/04/17 08:16:51;;;;;;;12.73;7.75;;;12.50;99.90;;;;;;5015108;28;20057;-63
2023/04/17 08:19:17;;;;;;;11.50;7.65;;;12.50;9.80;;;;;;5022330;28;20110;-63
2023/04/17 08:21:45;;;;;;;10.30;7.32;;;12.50;99.90;;;;;;5007552;28;20183;-64
2023/04/17 08:24:11;;;;;;;11.88;7.40;;;12.70;99.90;;;;;;5015881;28;20056;-62
2023/04/17 08:26:36;;;;;;;10.27;7.70;;;12.70;99.90;;;;;;5016834;28;20498;-62
2023/04/17 08:29:03;;;;;;;11.43;7.90;;;12.60;51.10;;;;;;5018902;28;20049;-63
2023/04/17 08:31:29;;;;;;;11.88;8.82;;;12.70;55.40;;;;;;5017760;28;20053;-63
2023/04/17 08:33:56;;;;;;;13.85;9.15;;;12.60;51.40;;;;;;5020906;28;20038;-63
2023/04/17 08:36:21;;;;;;;12.57;8.90;;;12.70;18.80;;;;;;5000759;28;20041;-63
2023/04/17 08:38:48;;;;;;;10.73;6.88;;;12.60;1.00;;;;;;5017161;28;20409;-62
2023/04/17 08:41:20;;;;;;;11.63;7.20;;;12.50;1.00;;;;;;5020475;28;20115;-62
2023/04/17 08:43:50;;;;;;;11.63;8.15;;;12.60;1.00;;;;;;5027926;28;20099;-63
2023/04/17 08:46:17;;;;;;;10.75;7.25;;;12.80;1.00;;;;;;5020665;28;20045;-63
2023/04/17 08:48:44;;;;;;;11.15;8.45;;;12.90;1.00;;;;;;5018088;28;20053;-63
2023/04/17 08:51:10;;;;;;;9.95;8.30;;;13.00;1.00;;;;;;5021792;28;20037;-62
2023/04/17 08:53:35;;;;;;;9.30;8.15;;;13.10;1.00;;;;;;5018144;28;20561;-63
2023/04/17 08:56:05;;;;;;;14.65;8.55;;;13.20;1.00;;;;;;5021668;28;20083;-63
2023/04/17 08:58:32;;;;;;;9.10;8.07;;;13.30;99.90;;;;;;5018126;28;20115;-63
2023/04/17 09:01:17;;;;;;;10.50;7.70;;;13.60;1.00;;;;;;5019907;28;20041;-64
2023/04/17 09:03:45;;;;;;;10.38;8.23;;;13.60;99.90;;;;;;5030415;28;20045;-64
2023/04/17 09:06:12;;;;;;;11.25;8.30;;;13.60;1.00;;;;;;5011570;28;20067;-63
2023/04/17 09:08:52;;;;;;;12.25;8.60;;;13.80;1.00;;;;;;5013131;28;20577;-63
2023/04/17 09:11:18;;;;;;;10.02;8.98;;;13.70;99.90;;;;;;5034814;28;20360;-63
2023/04/17 09:13:44;;;;;;;10.05;9.05;;;13.60;99.90;;;;;;5017963;28;20037;-63
2023/04/17 09:16:12;;;;;;;10.95;9.52;;;13.30;99.90;;;;;;5017760;28;20071;-64
2023/04/17 09:18:39;;;;;;;12.43;8.30;;;13.30;99.90;;;;;;5019151;28;20716;-64
2023/04/17 09:21:06;;;;;;;10.07;7.97;;;13.10;99.90;;;;;;5005612;28;20048;-64
2023/04/17 09:23:45;;;;;;;11.75;8.48;;;13.00;99.90;;;;;;5021478;28;20201;-63
2023/04/17 09:26:13;;;;;;;10.25;8.45;;;13.00;99.90;;;;;;5020767;28;20475;-64
2023/04/17 09:28:39;;;;;;;12.98;9.50;;;12.90;99.90;;;;;;5014522;28;20072;-65
2023/04/17 09:31:24;;;;;;;12.15;9.02;;;13.10;99.90;;;;;;5011257;28;20527;-64
2023/04/17 09:34:07;;;;;;;9.40;8.15;;;13.20;1.00;;;;;;5015534;28;20136;-63
2023/04/17 09:36:37;;;;;;;;;;;13.40;99.90;;;;;;5013373;28;20284;-64
2023/04/17 09:39:23;;;;;;;13.68;9.20;;;13.10;99.90;;;;;;5036728;28;20407;-63
2023/04/17 09:41:49;;;;;;;10.07;9.02;;;13.50;99.90;;;;;;5016836;28;20050;-63
2023/04/17 09:44:26;;;;;;;12.57;9.35;;;13.80;99.90;;;;;;5016441;28;20072;-63
2023/04/17 09:46:53;;;;;;;11.52;8.77;;;13.90;99.90;;;;;;5019412;28;20124;-62
2023/04/17 09:49:38;;;;;;;12.32;8.57;;;14.00;99.90;;;;;;5017028;28;20243;-63
2023/04/17 09:52:05;;;;;;;12.23;8.55;;;14.20;99.90;;;;;;5019901;28;20181;-64
2023/04/17 09:54:36;;;;;;;11.93;8.48;;;14.20;99.90;;;;;;5029391;28;20041;-63
2023/04/17 09:57:03;;;;;;;10.35;8.00;;;14.30;99.90;;;;;;5010758;28;20672;-62
2023/04/17 09:59:29;;;;;;;12.23;9.32;;;14.20;99.90;;;;;;5015110;28;20081;-62
2023/04/17 10:01:55;;;;;;;10.48;9.13;;;14.40;99.90;;;;;;5017273;28;20034;-64
2023/04/17 10:04:22;;;;;;;13.38;9.35;;;14.40;99.90;;;;;;5016140;28;20229;-63
2023/04/17 10:06:48;;;;;;;11.32;9.57;;;14.60;99.90;;;;;;5019435;28;20041;-64
2023/04/17 10:09:14;;;;;;;14.13;10.00;;;14.70;99.90;;;;;;5027566;28;20041;-63
2023/04/17 10:11:45;;;;;;;13.40;9.13;;;15.10;99.90;;;;;;5017992;28;20048;-62
2023/04/17 10:14:24;;;;;;;12.93;9.38;;;15.30;99.90;;;;;;5031459;28;20037;-63
2023/04/17 10:16:50;;;;;;;12.43;9.90;;;15.50;99.90;;;;;;5011986;28;20037;-63
2023/04/17 10:19:30;;;;;;;12.23;9.82;;;15.70;99.90;;;;;;5014879;28;20029;-63
2023/04/17 10:22:14;;;;;;;15.90;10.13;;;15.80;99.90;;;;;;5016841;28;20191;-63
2023/04/17 10:24:44;;;;;;;14.30;9.77;;;15.90;99.90;;;;;;5019039;28;20045;-62
2023/04/17 10:27:25;;;;;;;12.50;10.07;;;16.10;99.90;;;;;;5036007;28;20094;-64
2023/04/17 10:29:55;;;;;;;12.77;9.27;;;16.30;99.90;;;;;;5019522;28;20826;-64
2023/04/17 10:32:27;;;;;;;12.38;9.75;;;16.30;99.90;;;;;;5016062;28;20156;-64
2023/04/17 10:35:00;;;;;;;15.32;8.68;;;16.30;99.90;;;;;;5015669;28;20053;-63
2023/04/17 10:37:51;;;;;;;9.88;8.32;;;16.60;99.90;;;;;;5019644;28;20242;-63
2023/04/17 10:40:31;;;;;;;14.00;9.02;;;16.80;99.90;;;;;;5019587;28;20627;-63
2023/04/17 10:43:12;;;;;;;11.93;8.77;;;17.00;99.90;;;;;;5016941;28;20052;-62
2023/04/17 10:45:50;;;;;;;12.07;8.65;;;16.80;99.90;;;;;;5015739;28;20130;-63
2023/04/17 10:48:21;;;;;;;11.90;8.93;;;17.00;99.90;;;;;;5012471;28;20037;-64
2023/04/17 10:50:47;;;;;;;14.10;8.93;;;17.10;99.90;;;;;;5017566;28;20075;-64
2023/04/17 10:53:39;;;;;;;11.52;8.77;;;17.30;99.90;;;;;;5015081;28;20037;-63
2023/04/17 10:56:05;;;;;;;13.98;9.98;;;17.20;99.90;;;;;;5016559;28;20037;-63
2023/04/17 10:58:31;;;;;;;15.60;10.77;;;17.10;99.90;;;;;;5037736;28;20076;-63
2023/04/17 11:01:02;;;;;;;13.82;10.32;;;17.40;99.90;;;;;;5014772;28;20475;-64
2023/04/17 11:03:29;;;;;;;14.18;10.68;;;17.30;99.90;;;;;;5015245;28;20038;-64
2023/04/17 11:05:57;;;;;;;15.10;11.88;;;17.50;99.90;;;;;;5009163;28;20450;-64
2023/04/17 11:08:23;;;;;;;15.35;12.25;;;17.50;99.90;;;;;;5013179;28;20569;-63
2023/04/17 11:10:55;;;;;;;13.88;10.50;;;17.40;99.90;;;;;;5013173;28;20410;-63
2023/04/17 11:13:21;;;;;;;14.15;11.23;;;17.00;99.90;;;;;;5014910;28;20172;-64
2023/04/17 11:15:46;;;;;;;15.43;11.60;;;17.20;99.90;;;;;;5013801;28;20043;-63
2023/04/17 11:18:12;;;;;;;14.52;11.68;;;17.40;99.90;;;;;;5012661;28;20041;-63
2023/04/17 11:20:39;;;;;;;16.15;12.98;;;17.40;99.90;;;;;;5015635;28;20134;-63
2023/04/17 11:23:06;;;;;;;15.63;12.77;;;17.00;99.90;;;;;;4999609;28;20041;-64
2023/04/17 11:25:32;;;;;;;16.23;12.77;;;17.10;99.90;;;;;;5018807;28;20107;-63
2023/04/17 11:28:04;;;;;;;19.48;13.35;;;17.50;99.90;;;;;;5021843;28;20185;-65
2023/04/17 11:30:33;;;;;;;18.07;13.23;;;17.60;99.90;;;;;;5011576;28;20057;-63
2023/04/17 11:33:06;;;;;;;16.25;13.27;;;17.40;99.90;;;;;;5032007;28;20045;-64
2023/04/17 11:35:37;;;;;;;17.73;13.27;;;17.40;57.50;;;;;;5013033;28;20044;-63
2023/04/17 11:38:10;;;;;;;17.23;13.98;;;17.80;97.00;;;;;;5016419;28;20375;-63
2023/04/17 11:40:41;;;;;;;14.90;13.38;;;18.10;62.80;;;;;;5009724;28;20131;-62
2023/04/17 11:43:07;;;;;;;19.13;14.55;;;18.00;92.50;;;;;;5013186;28;20530;-63
2023/04/17 11:45:35;;;;;;;16.90;12.95;;;18.20;60.00;;;;;;4999329;28;20037;-64
2023/04/17 11:48:01;;;;;;;16.92;13.07;;;18.00;31.80;;;;;;4999443;28;20041;-63
2023/04/17 11:50:28;;;;;;;17.10;13.98;;;18.10;21.70;;;;;;5026584;28;20132;-63
2023/04/17 11:53:02;;;;;;;15.45;12.98;;;18.20;20.80;;;;;;5010174;28;20075;-63
2023/04/17 11:55:30;;;;;;;15.30;12.73;;;18.50;1.00;;;;;;5014847;28;20418;-63
2023/04/17 11:58:00;;;;;;;15.25;12.82;;;18.40;6.20;;;;;;5015883;28;20064;-63
2023/04/17 12:00:28;;;;;;;14.65;12.60;;;18.10;1.00;;;;;;5014558;28;20335;-64
2023/04/17 12:02:59;;;;;;;17.95;13.25;;;18.30;1.00;;;;;;5015799;28;20146;-64
2023/04/17 12:05:26;;;;;;;16.23;12.45;;;18.40;1.00;;;;;;5038206;28;20347;-64
2023/04/17 12:08:03;;;;;;;18.23;14.10;;;18.60;1.00;;;;;;5020792;28;20040;-63
2023/04/17 12:10:43;;;;;;;16.25;13.75;;;18.80;1.00;;;;;;5018448;28;20040;-64
2023/04/17 12:13:10;;;;;;;16.73;13.60;;;18.70;99.90;;;;;;5020022;28;20049;-65
2023/04/17 12:15:37;;;;;;;15.95;13.98;;;18.80;1.00;;;;;;5013535;28;20240;-65
2023/04/17 12:18:04;;;;;;;15.50;13.82;;;18.80;1.00;;;;;;5013367;28;20130;-64
2023/04/17 12:20:36;;;;;;;15.18;13.57;;;19.00;99.90;;;;;;5006490;28;20041;-64
2023/04/17 12:23:02;;;;;;;19.73;16.52;;;18.50;99.90;;;;;;5039696;28;20041;-63
2023/04/17 12:25:29;;;;;;;14.82;13.25;;;18.60;99.90;;;;;;5035091;28;20049;-64
2023/04/17 12:27:57;;;;;;;14.70;13.15;;;18.70;99.90;;;;;;5030129;28;20318;-63
2023/04/17 12:30:26;;;;;;;16.08;13.07;;;18.50;1.00;;;;;;5023850;28;20692;-62
2023/04/17 12:32:55;;;;;;;14.82;12.77;;;18.60;1.00;;;;;;5013650;28;20243;-63
2023/04/17 12:35:22;;;;;;;14.27;12.77;;;18.80;1.00;;;;;;5018330;28;20116;-62
2023/04/17 12:37:50;;;;;;;14.70;13.20;;;18.70;99.90;;;;;;5018060;28;20035;-64